sensor_id;sensor_type;location;lat;lon;timestamp;temperature;humidity
70867;HTU21D;58487;53.474;49.470;2024-03-02T00:00:52;-7.72;109.82
70867;HTU21D;58487;53.474;49.470;2024-03-02T00:03:19;-6.15;118.99
70867;HTU21D;58487;53.474;49.470;2024-03-02T00:05:50;-6.46;101.67
70867;HTU21D;58487;53.474;49.470;2024-03-02T00:08:26;-6.03;109.82
70867;HTU21D;58487;53.474;49.470;2024-03-02T00:10:58;-6.26;100.08
70867;HTU21D;58487;53.474;49.470;2024-03-02T00:13:24;-6.26;118.99
70867;HTU21D;58487;53.474;49.470;2024-03-02T00:15:55;-6.16;100.99
70867;HTU21D;58487;53.474;49.470;2024-03-02T00:18:26;-6.02;107.37
70867;HTU21D;58487;53.474;49.470;2024-03-02T00:20:57;-5.98;91.20
70867;HTU21D;58487;53.474;49.470;2024-03-02T00:23:24;-5.99;107.72
70867;HTU21D;58487;53.474;49.470;2024-03-02T00:25:57;-6.46;97.36
70867;HTU21D;58487;53.474;49.470;2024-03-02T00:28:31;-6.13;118.99
70867;HTU21D;58487;53.474;49.470;2024-03-02T00:31:05;-5.99;83.79
70867;HTU21D;58487;53.474;49.470;2024-03-02T00:33:36;-6.41;91.64
70867;HTU21D;58487;53.474;49.470;2024-03-02T00:36:04;-6.73;89.69
70867;HTU21D;58487;53.474;49.470;2024-03-02T00:38:31;-6.26;97.10
70867;HTU21D;58487;53.474;49.470;2024-03-02T00:41:05;-6.28;89.73
70867;HTU21D;58487;53.474;49.470;2024-03-02T00:43:43;-6.32;97.59
70867;HTU21D;58487;53.474;49.470;2024-03-02T00:46:16;-5.68;85.80
70867;HTU21D;58487;53.474;49.470;2024-03-02T00:51:16;-5.54;95.97
70867;HTU21D;58487;53.474;49.470;2024-03-02T00:53:43;-5.54;85.19
70867;HTU21D;58487;53.474;49.470;2024-03-02T00:56:10;-5.46;90.62
70867;HTU21D;58487;53.474;49.470;2024-03-02T00:58:38;-5.52;89.18
70867;HTU21D;58487;53.474;49.470;2024-03-02T01:01:04;-5.58;85.38
70867;HTU21D;58487;53.474;49.470;2024-03-02T01:03:34;-5.62;78.41
70867;HTU21D;58487;53.474;49.470;2024-03-02T01:06:00;-5.63;78.98
70867;HTU21D;58487;53.474;49.470;2024-03-02T01:08:26;-5.60;97.94
70867;HTU21D;58487;53.474;49.470;2024-03-02T01:10:53;-5.72;78.73
70867;HTU21D;58487;53.474;49.470;2024-03-02T01:13:19;-5.61;88.94
70867;HTU21D;58487;53.474;49.470;2024-03-02T01:15:45;-5.58;78.10
70867;HTU21D;58487;53.474;49.470;2024-03-02T01:18:12;-5.71;118.99
70867;HTU21D;58487;53.474;49.470;2024-03-02T01:20:38;-5.79;118.99
70867;HTU21D;58487;53.474;49.470;2024-03-02T01:23:04;-5.57;118.99
70867;HTU21D;58487;53.474;49.470;2024-03-02T01:25:30;-5.67;118.99
70867;HTU21D;58487;53.474;49.470;2024-03-02T01:27:56;-5.83;106.61
70867;HTU21D;58487;53.474;49.470;2024-03-02T01:30:23;-5.52;118.99
70867;HTU21D;58487;53.474;49.470;2024-03-02T01:32:49;-5.46;118.99
70867;HTU21D;58487;53.474;49.470;2024-03-02T01:35:15;-5.42;96.29
70867;HTU21D;58487;53.474;49.470;2024-03-02T01:37:44;-5.44;82.97
70867;HTU21D;58487;53.474;49.470;2024-03-02T01:40:10;-5.30;94.97
70867;HTU21D;58487;53.474;49.470;2024-03-02T01:42:37;-5.29;95.01
70867;HTU21D;58487;53.474;49.470;2024-03-02T01:45:05;-5.39;109.10
70867;HTU21D;58487;53.474;49.470;2024-03-02T01:47:32;-5.42;108.77
70867;HTU21D;58487;53.474;49.470;2024-03-02T01:49:59;-5.54;89.85
70867;HTU21D;58487;53.474;49.470;2024-03-02T01:52:26;-5.53;85.09
70867;HTU21D;58487;53.474;49.470;2024-03-02T01:54:52;-5.48;104.98
70867;HTU21D;58487;53.474;49.470;2024-03-02T01:57:19;-5.57;102.41
70867;HTU21D;58487;53.474;49.470;2024-03-02T01:59:46;-5.98;118.99
70867;HTU21D;58487;53.474;49.470;2024-03-02T02:02:14;-5.98;86.25
70867;HTU21D;58487;53.474;49.470;2024-03-02T02:04:41;-5.85;118.99
70867;HTU21D;58487;53.474;49.470;2024-03-02T02:07:07;-6.21;118.34
70867;HTU21D;58487;53.474;49.470;2024-03-02T02:09:33;-6.27;84.79
70867;HTU21D;58487;53.474;49.470;2024-03-02T02:12:00;-6.65;82.58
70867;HTU21D;58487;53.474;49.470;2024-03-02T02:14:26;-6.60;84.04
70867;HTU21D;58487;53.474;49.470;2024-03-02T02:16:52;-6.33;89.62
70867;HTU21D;58487;53.474;49.470;2024-03-02T02:19:18;-6.39;90.44
70867;HTU21D;58487;53.474;49.470;2024-03-02T02:21:44;-6.17;87.55
70867;HTU21D;58487;53.474;49.470;2024-03-02T02:24:11;-6.47;87.47
70867;HTU21D;58487;53.474;49.470;2024-03-02T02:26:39;-6.53;85.32
70867;HTU21D;58487;53.474;49.470;2024-03-02T02:29:05;-6.58;87.44
70867;HTU21D;58487;53.474;49.470;2024-03-02T02:31:38;-5.97;84.08
70867;HTU21D;58487;53.474;49.470;2024-03-02T02:34:05;-6.18;82.75
70867;HTU21D;58487;53.474;49.470;2024-03-02T02:36:32;-6.49;83.72
70867;HTU21D;58487;53.474;49.470;2024-03-02T02:39:02;-6.27;83.75
70867;HTU21D;58487;53.474;49.470;2024-03-02T02:41:30;-6.93;95.91
70867;HTU21D;58487;53.474;49.470;2024-03-02T02:43:56;-6.70;90.34
70867;HTU21D;58487;53.474;49.470;2024-03-02T02:46:22;-6.43;89.16
70867;HTU21D;58487;53.474;49.470;2024-03-02T02:48:49;-6.30;82.78
70867;HTU21D;58487;53.474;49.470;2024-03-02T02:51:17;-6.06;86.64
70867;HTU21D;58487;53.474;49.470;2024-03-02T02:53:43;-6.11;82.38
70867;HTU21D;58487;53.474;49.470;2024-03-02T02:56:14;-6.09;87.19
70867;HTU21D;58487;53.474;49.470;2024-03-02T02:58:40;-6.11;90.46
70867;HTU21D;58487;53.474;49.470;2024-03-02T03:01:07;-6.24;81.56
70867;HTU21D;58487;53.474;49.470;2024-03-02T03:03:34;-6.30;86.96
70867;HTU21D;58487;53.474;49.470;2024-03-02T03:06:00;-6.32;82.27
70867;HTU21D;58487;53.474;49.470;2024-03-02T03:08:26;-6.27;82.50
70867;HTU21D;58487;53.474;49.470;2024-03-02T03:10:53;-6.18;83.29
70867;HTU21D;58487;53.474;49.470;2024-03-02T03:13:19;-6.28;118.99
70867;HTU21D;58487;53.474;49.470;2024-03-02T03:15:45;-6.13;80.57
70867;HTU21D;58487;53.474;49.470;2024-03-02T03:18:11;-6.55;118.99
70867;HTU21D;58487;53.474;49.470;2024-03-02T03:20:37;-6.93;118.99
70867;HTU21D;58487;53.474;49.470;2024-03-02T03:23:04;-7.61;118.99
70867;HTU21D;58487;53.474;49.470;2024-03-02T03:25:30;-7.49;118.99
70867;HTU21D;58487;53.474;49.470;2024-03-02T03:27:56;-6.89;85.98
70867;HTU21D;58487;53.474;49.470;2024-03-02T03:30:23;-7.18;89.06
70867;HTU21D;58487;53.474;49.470;2024-03-02T03:32:49;-7.40;86.76
70867;HTU21D;58487;53.474;49.470;2024-03-02T03:35:15;-7.44;95.69
70867;HTU21D;58487;53.474;49.470;2024-03-02T03:37:42;-7.16;107.67
70867;HTU21D;58487;53.474;49.470;2024-03-02T03:40:08;-7.38;86.89
70867;HTU21D;58487;53.474;49.470;2024-03-02T03:42:38;-7.20;88.87
70867;HTU21D;58487;53.474;49.470;2024-03-02T03:45:06;-7.50;86.90
70867;HTU21D;58487;53.474;49.470;2024-03-02T03:47:33;-7.53;86.38
70867;HTU21D;58487;53.474;49.470;2024-03-02T03:49:59;-7.01;85.29
70867;HTU21D;58487;53.474;49.470;2024-03-02T03:52:25;-7.23;84.86
70867;HTU21D;58487;53.474;49.470;2024-03-02T03:54:51;-6.97;84.71
70867;HTU21D;58487;53.474;49.470;2024-03-02T03:57:18;-6.94;84.98
70867;HTU21D;58487;53.474;49.470;2024-03-02T03:59:44;-6.59;84.74
70867;HTU21D;58487;53.474;49.470;2024-03-02T04:02:12;-6.41;81.94
70867;HTU21D;58487;53.474;49.470;2024-03-02T04:04:38;-6.27;80.97
70867;HTU21D;58487;53.474;49.470;2024-03-02T04:07:05;-6.15;80.29
70867;HTU21D;58487;53.474;49.470;2024-03-02T04:09:31;-6.05;80.51
70867;HTU21D;58487;53.474;49.470;2024-03-02T04:11:57;-5.97;79.85
70867;HTU21D;58487;53.474;49.470;2024-03-02T04:14:24;-5.91;80.33
70867;HTU21D;58487;53.474;49.470;2024-03-02T04:16:50;-5.86;80.40
70867;HTU21D;58487;53.474;49.470;2024-03-02T04:19:16;-5.87;80.49
70867;HTU21D;58487;53.474;49.470;2024-03-02T04:21:43;-5.87;79.11
70867;HTU21D;58487;53.474;49.470;2024-03-02T04:24:10;-5.84;78.52
70867;HTU21D;58487;53.474;49.470;2024-03-02T04:26:39;-5.78;78.16
70867;HTU21D;58487;53.474;49.470;2024-03-02T04:29:05;-5.78;77.85
70867;HTU21D;58487;53.474;49.470;2024-03-02T04:31:31;-5.74;77.08
70867;HTU21D;58487;53.474;49.470;2024-03-02T04:33:58;-5.71;76.88
70867;HTU21D;58487;53.474;49.470;2024-03-02T04:36:26;-5.81;76.66
70867;HTU21D;58487;53.474;49.470;2024-03-02T04:38:52;-5.73;75.87
70867;HTU21D;58487;53.474;49.470;2024-03-02T04:41:19;-5.69;75.22
70867;HTU21D;58487;53.474;49.470;2024-03-02T04:43:45;-5.61;76.70
70867;HTU21D;58487;53.474;49.470;2024-03-02T04:46:11;-5.55;76.22
70867;HTU21D;58487;53.474;49.470;2024-03-02T04:48:37;-5.48;75.58
70867;HTU21D;58487;53.474;49.470;2024-03-02T04:51:04;-5.41;76.37
70867;HTU21D;58487;53.474;49.470;2024-03-02T04:53:32;-5.33;75.92
70867;HTU21D;58487;53.474;49.470;2024-03-02T04:55:59;-5.30;75.67
70867;HTU21D;58487;53.474;49.470;2024-03-02T04:58:43;-5.20;75.68
70867;HTU21D;58487;53.474;49.470;2024-03-02T05:01:09;-5.13;75.86
70867;HTU21D;58487;53.474;49.470;2024-03-02T05:03:36;-5.03;75.82
70867;HTU21D;58487;53.474;49.470;2024-03-02T05:06:03;-4.95;74.70
70867;HTU21D;58487;53.474;49.470;2024-03-02T05:08:32;-4.90;76.71
70867;HTU21D;58487;53.474;49.470;2024-03-02T05:10:58;-4.82;76.17
70867;HTU21D;58487;53.474;49.470;2024-03-02T05:13:45;-4.68;74.63
70867;HTU21D;58487;53.474;49.470;2024-03-02T05:16:11;-4.58;74.85
70867;HTU21D;58487;53.474;49.470;2024-03-02T05:18:37;-4.42;76.07
70867;HTU21D;58487;53.474;49.470;2024-03-02T05:21:05;-4.38;77.11
70867;HTU21D;58487;53.474;49.470;2024-03-02T05:23:31;-4.34;76.82
70867;HTU21D;58487;53.474;49.470;2024-03-02T05:25:59;-4.32;74.57
70867;HTU21D;58487;53.474;49.470;2024-03-02T05:28:26;-4.26;73.42
70867;HTU21D;58487;53.474;49.470;2024-03-02T05:30:52;-4.23;74.81
70867;HTU21D;58487;53.474;49.470;2024-03-02T05:33:18;-4.24;72.93
70867;HTU21D;58487;53.474;49.470;2024-03-02T05:35:45;-4.29;76.31
70867;HTU21D;58487;53.474;49.470;2024-03-02T05:38:11;-4.26;70.20
70867;HTU21D;58487;53.474;49.470;2024-03-02T05:40:37;-4.32;70.84
70867;HTU21D;58487;53.474;49.470;2024-03-02T05:43:04;-4.74;73.83
70867;HTU21D;58487;53.474;49.470;2024-03-02T05:45:30;-4.72;73.94
70867;HTU21D;58487;53.474;49.470;2024-03-02T05:47:56;-4.59;75.66
70867;HTU21D;58487;53.474;49.470;2024-03-02T05:50:23;-4.35;75.39
70867;HTU21D;58487;53.474;49.470;2024-03-02T05:52:49;-4.24;75.34
70867;HTU21D;58487;53.474;49.470;2024-03-02T05:55:15;-4.21;75.31
70867;HTU21D;58487;53.474;49.470;2024-03-02T05:57:42;-4.14;73.78
70867;HTU21D;58487;53.474;49.470;2024-03-02T06:00:21;-4.04;70.88
70867;HTU21D;58487;53.474;49.470;2024-03-02T06:02:48;-3.90;75.29
70867;HTU21D;58487;53.474;49.470;2024-03-02T06:05:14;-3.64;72.97
70867;HTU21D;58487;53.474;49.470;2024-03-02T06:07:42;-3.52;70.29
70867;HTU21D;58487;53.474;49.470;2024-03-02T06:10:09;-3.27;70.53
70867;HTU21D;58487;53.474;49.470;2024-03-02T06:12:35;-3.15;74.72
70867;HTU21D;58487;53.474;49.470;2024-03-02T06:15:01;-3.16;72.28
70867;HTU21D;58487;53.474;49.470;2024-03-02T06:17:27;-3.01;73.38
70867;HTU21D;58487;53.474;49.470;2024-03-02T06:19:54;-2.94;73.27
70867;HTU21D;58487;53.474;49.470;2024-03-02T06:22:20;-2.83;72.55
70867;HTU21D;58487;53.474;49.470;2024-03-02T06:24:47;-2.75;73.87
70867;HTU21D;58487;53.474;49.470;2024-03-02T06:27:13;-2.74;71.34
70867;HTU21D;58487;53.474;49.470;2024-03-02T06:29:39;-2.73;72.11
70867;HTU21D;58487;53.474;49.470;2024-03-02T06:32:06;-2.41;70.77
70867;HTU21D;58487;53.474;49.470;2024-03-02T06:34:32;-2.27;70.19
70867;HTU21D;58487;53.474;49.470;2024-03-02T06:36:58;-2.05;71.00
70867;HTU21D;58487;53.474;49.470;2024-03-02T06:39:24;-1.95;69.14
70867;HTU21D;58487;53.474;49.470;2024-03-02T06:41:52;-1.93;68.26
70867;HTU21D;58487;53.474;49.470;2024-03-02T06:44:18;-1.91;67.94
70867;HTU21D;58487;53.474;49.470;2024-03-02T06:46:44;-1.97;67.06
70867;HTU21D;58487;53.474;49.470;2024-03-02T06:49:13;-1.88;70.02
70867;HTU21D;58487;53.474;49.470;2024-03-02T06:51:40;-1.83;68.63
70867;HTU21D;58487;53.474;49.470;2024-03-02T06:54:08;-1.88;66.68
70867;HTU21D;58487;53.474;49.470;2024-03-02T06:56:35;-1.80;67.37
70867;HTU21D;58487;53.474;49.470;2024-03-02T06:59:01;-1.71;69.80
70867;HTU21D;58487;53.474;49.470;2024-03-02T07:01:27;-1.69;68.71
70867;HTU21D;58487;53.474;49.470;2024-03-02T07:03:54;-1.62;70.48
70867;HTU21D;58487;53.474;49.470;2024-03-02T07:06:20;-1.40;69.39
70867;HTU21D;58487;53.474;49.470;2024-03-02T07:08:46;-1.40;70.52
70867;HTU21D;58487;53.474;49.470;2024-03-02T07:11:13;-1.48;68.86
70867;HTU21D;58487;53.474;49.470;2024-03-02T07:13:39;-1.52;66.76
70867;HTU21D;58487;53.474;49.470;2024-03-02T07:16:06;-1.63;70.68
70867;HTU21D;58487;53.474;49.470;2024-03-02T07:18:52;-1.92;71.11
70867;HTU21D;58487;53.474;49.470;2024-03-02T07:21:18;-2.48;77.00
70867;HTU21D;58487;53.474;49.470;2024-03-02T07:23:44;-2.64;69.80
70867;HTU21D;58487;53.474;49.470;2024-03-02T07:26:11;-2.76;75.60
70867;HTU21D;58487;53.474;49.470;2024-03-02T07:28:37;-2.58;79.27
70867;HTU21D;58487;53.474;49.470;2024-03-02T07:31:04;-2.23;73.35
70867;HTU21D;58487;53.474;49.470;2024-03-02T07:33:33;-2.45;71.41
70867;HTU21D;58487;53.474;49.470;2024-03-02T07:36:00;-2.79;76.21
70867;HTU21D;58487;53.474;49.470;2024-03-02T07:38:28;-2.95;78.88
70867;HTU21D;58487;53.474;49.470;2024-03-02T07:40:55;-2.95;77.38
70867;HTU21D;58487;53.474;49.470;2024-03-02T07:43:21;-2.67;75.44
70867;HTU21D;58487;53.474;49.470;2024-03-02T07:45:48;-2.47;71.51
70867;HTU21D;58487;53.474;49.470;2024-03-02T07:48:15;-2.16;72.41
70867;HTU21D;58487;53.474;49.470;2024-03-02T07:50:41;-1.70;70.48
70867;HTU21D;58487;53.474;49.470;2024-03-02T07:53:09;-1.42;69.45
70867;HTU21D;58487;53.474;49.470;2024-03-02T07:55:35;-1.24;68.24
70867;HTU21D;58487;53.474;49.470;2024-03-02T07:58:01;-1.26;68.18
70867;HTU21D;58487;53.474;49.470;2024-03-02T08:00:28;-1.05;68.18
70867;HTU21D;58487;53.474;49.470;2024-03-02T08:02:55;-1.43;68.30
70867;HTU21D;58487;53.474;49.470;2024-03-02T08:05:22;-1.90;71.12
70867;HTU21D;58487;53.474;49.470;2024-03-02T08:07:48;-2.18;71.89
70867;HTU21D;58487;53.474;49.470;2024-03-02T08:10:18;-2.06;70.84
70867;HTU21D;58487;53.474;49.470;2024-03-02T08:12:45;-1.74;69.24
70867;HTU21D;58487;53.474;49.470;2024-03-02T08:15:11;-1.59;70.19
70867;HTU21D;58487;53.474;49.470;2024-03-02T08:17:40;-1.89;71.80
70867;HTU21D;58487;53.474;49.470;2024-03-02T08:20:14;-1.93;66.78
70867;HTU21D;58487;53.474;49.470;2024-03-02T08:22:40;-1.94;73.51
70867;HTU21D;58487;53.474;49.470;2024-03-02T08:25:07;-1.88;70.05
70867;HTU21D;58487;53.474;49.470;2024-03-02T08:27:35;-1.73;71.07
70867;HTU21D;58487;53.474;49.470;2024-03-02T08:30:01;-1.39;72.96
70867;HTU21D;58487;53.474;49.470;2024-03-02T08:32:29;-1.27;71.57
70867;HTU21D;58487;53.474;49.470;2024-03-02T08:34:55;-1.41;71.44
70867;HTU21D;58487;53.474;49.470;2024-03-02T08:37:22;-1.30;69.26
70867;HTU21D;58487;53.474;49.470;2024-03-02T08:39:48;-1.10;70.15
70867;HTU21D;58487;53.474;49.470;2024-03-02T08:42:14;-0.97;65.43
70867;HTU21D;58487;53.474;49.470;2024-03-02T08:44:41;-1.40;70.79
70867;HTU21D;58487;53.474;49.470;2024-03-02T08:47:07;-1.62;71.00
70867;HTU21D;58487;53.474;49.470;2024-03-02T08:49:33;-1.63;70.97
70867;HTU21D;58487;53.474;49.470;2024-03-02T08:51:59;-1.48;70.75
70867;HTU21D;58487;53.474;49.470;2024-03-02T08:54:25;-1.55;70.93
70867;HTU21D;58487;53.474;49.470;2024-03-02T08:56:52;-1.54;70.15
70867;HTU21D;58487;53.474;49.470;2024-03-02T08:59:19;-1.65;71.95
70867;HTU21D;58487;53.474;49.470;2024-03-02T09:01:45;-1.64;69.98
70867;HTU21D;58487;53.474;49.470;2024-03-02T09:04:11;-1.59;68.03
70867;HTU21D;58487;53.474;49.470;2024-03-02T09:06:38;-1.28;67.90
70867;HTU21D;58487;53.474;49.470;2024-03-02T09:09:04;-1.31;65.85
70867;HTU21D;58487;53.474;49.470;2024-03-02T09:11:31;-1.19;69.38
70867;HTU21D;58487;53.474;49.470;2024-03-02T09:13:58;-1.26;69.13
70867;HTU21D;58487;53.474;49.470;2024-03-02T09:16:24;-1.12;67.84
70867;HTU21D;58487;53.474;49.470;2024-03-02T09:18:56;-0.56;63.98
70867;HTU21D;58487;53.474;49.470;2024-03-02T09:21:24;-0.15;60.94
70867;HTU21D;58487;53.474;49.470;2024-03-02T09:23:51;-0.00;64.68
70867;HTU21D;58487;53.474;49.470;2024-03-02T09:26:17;0.25;59.35
70867;HTU21D;58487;53.474;49.470;2024-03-02T09:28:45;0.48;58.14
70867;HTU21D;58487;53.474;49.470;2024-03-02T09:31:12;0.64;57.55
70867;HTU21D;58487;53.474;49.470;2024-03-02T09:33:38;0.83;56.37
70867;HTU21D;58487;53.474;49.470;2024-03-02T09:36:05;0.80;60.64
70867;HTU21D;58487;53.474;49.470;2024-03-02T09:38:32;0.90;62.47
70867;HTU21D;58487;53.474;49.470;2024-03-02T09:41:00;1.11;59.60
70867;HTU21D;58487;53.474;49.470;2024-03-02T09:43:27;1.50;57.92
70867;HTU21D;58487;53.474;49.470;2024-03-02T09:45:53;1.86;58.93
70867;HTU21D;58487;53.474;49.470;2024-03-02T09:48:22;2.40;55.90
70867;HTU21D;58487;53.474;49.470;2024-03-02T09:50:48;2.87;54.39
70867;HTU21D;58487;53.474;49.470;2024-03-02T09:53:15;3.27;54.52
70867;HTU21D;58487;53.474;49.470;2024-03-02T09:55:46;3.30;54.36
70867;HTU21D;58487;53.474;49.470;2024-03-02T09:58:13;3.53;53.44
70867;HTU21D;58487;53.474;49.470;2024-03-02T10:00:40;3.47;54.47
70867;HTU21D;58487;53.474;49.470;2024-03-02T10:03:13;3.42;54.64
70867;HTU21D;58487;53.474;49.470;2024-03-02T10:05:39;3.23;55.23
70867;HTU21D;58487;53.474;49.470;2024-03-02T10:08:06;3.74;54.66
70867;HTU21D;58487;53.474;49.470;2024-03-02T10:10:36;4.28;53.52
70867;HTU21D;58487;53.474;49.470;2024-03-02T10:13:14;4.89;49.97
70867;HTU21D;58487;53.474;49.470;2024-03-02T10:15:42;5.01;55.06
70867;HTU21D;58487;53.474;49.470;2024-03-02T10:18:10;4.97;48.13
70867;HTU21D;58487;53.474;49.470;2024-03-02T10:20:41;4.93;51.13
70867;HTU21D;58487;53.474;49.470;2024-03-02T10:23:16;5.02;52.49
70867;HTU21D;58487;53.474;49.470;2024-03-02T10:25:44;5.21;52.45
70867;HTU21D;58487;53.474;49.470;2024-03-02T10:28:11;5.57;51.16
70867;HTU21D;58487;53.474;49.470;2024-03-02T10:30:37;5.64;55.17
70867;HTU21D;58487;53.474;49.470;2024-03-02T10:33:05;5.34;52.27
70867;HTU21D;58487;53.474;49.470;2024-03-02T10:35:32;4.97;53.30
70867;HTU21D;58487;53.474;49.470;2024-03-02T10:37:59;4.46;56.90
70867;HTU21D;58487;53.474;49.470;2024-03-02T10:40:27;4.47;61.33
70867;HTU21D;58487;53.474;49.470;2024-03-02T10:42:53;4.30;61.21
70867;HTU21D;58487;53.474;49.470;2024-03-02T10:45:20;4.62;61.01
70867;HTU21D;58487;53.474;49.470;2024-03-02T10:47:50;5.55;56.59
70867;HTU21D;58487;53.474;49.470;2024-03-02T10:50:16;5.49;55.86
70867;HTU21D;58487;53.474;49.470;2024-03-02T10:52:43;5.02;56.09
70867;HTU21D;58487;53.474;49.470;2024-03-02T10:55:09;5.31;55.55
70867;HTU21D;58487;53.474;49.470;2024-03-02T11:00:13;5.11;59.40
70867;HTU21D;58487;53.474;49.470;2024-03-02T11:03:06;5.05;57.33
70867;HTU21D;58487;53.474;49.470;2024-03-02T11:05:36;4.63;64.13
70867;HTU21D;58487;53.474;49.470;2024-03-02T11:08:07;4.39;60.54
70867;HTU21D;58487;53.474;49.470;2024-03-02T11:10:41;4.08;54.10
70867;HTU21D;58487;53.474;49.470;2024-03-02T11:13:12;4.13;65.02
70867;HTU21D;58487;53.474;49.470;2024-03-02T11:15:40;4.91;55.18
70867;HTU21D;58487;53.474;49.470;2024-03-02T11:18:08;5.16;53.88
70867;HTU21D;58487;53.474;49.470;2024-03-02T11:20:44;5.43;58.43
70867;HTU21D;58487;53.474;49.470;2024-03-02T11:23:10;5.45;54.07
70867;HTU21D;58487;53.474;49.470;2024-03-02T11:25:37;4.49;54.10
70867;HTU21D;58487;53.474;49.470;2024-03-02T11:28:06;4.31;56.36
70867;HTU21D;58487;53.474;49.470;2024-03-02T11:35:31;5.30;52.62
70867;HTU21D;58487;53.474;49.470;2024-03-02T11:38:01;5.92;59.09
70867;HTU21D;58487;53.474;49.470;2024-03-02T11:40:30;6.55;50.27
70867;HTU21D;58487;53.474;49.470;2024-03-02T11:43:02;6.28;60.07
70867;HTU21D;58487;53.474;49.470;2024-03-02T11:45:28;6.29;60.05
70867;HTU21D;58487;53.474;49.470;2024-03-02T11:47:56;6.35;60.25
70867;HTU21D;58487;53.474;49.470;2024-03-02T11:50:36;7.65;68.30
70867;HTU21D;58487;53.474;49.470;2024-03-02T11:53:07;7.87;54.08
70867;HTU21D;58487;53.474;49.470;2024-03-02T11:55:39;8.85;65.24
70867;HTU21D;58487;53.474;49.470;2024-03-02T11:58:16;8.92;50.66
70867;HTU21D;58487;53.474;49.470;2024-03-02T12:00:53;9.33;49.53
70867;HTU21D;58487;53.474;49.470;2024-03-02T12:03:23;9.09;37.55
70867;HTU21D;58487;53.474;49.470;2024-03-02T12:05:50;9.69;84.10
70867;HTU21D;58487;53.474;49.470;2024-03-02T12:08:16;10.50;89.23
70867;HTU21D;58487;53.474;49.470;2024-03-02T12:10:43;10.77;72.35
70867;HTU21D;58487;53.474;49.470;2024-03-02T12:13:21;10.97;65.55
70867;HTU21D;58487;53.474;49.470;2024-03-02T12:15:47;10.54;69.29
70867;HTU21D;58487;53.474;49.470;2024-03-02T12:18:13;10.98;61.41
70867;HTU21D;58487;53.474;49.470;2024-03-02T12:20:40;11.02;69.00
70867;HTU21D;58487;53.474;49.470;2024-03-02T12:23:06;10.82;55.10
70867;HTU21D;58487;53.474;49.470;2024-03-02T12:25:33;10.35;63.04
70867;HTU21D;58487;53.474;49.470;2024-03-02T12:28:01;9.38;46.68
70867;HTU21D;58487;53.474;49.470;2024-03-02T12:30:31;9.76;61.99
70867;HTU21D;58487;53.474;49.470;2024-03-02T12:32:58;9.14;92.72
70867;HTU21D;58487;53.474;49.470;2024-03-02T12:35:25;8.22;91.80
70867;HTU21D;58487;53.474;49.470;2024-03-02T12:37:54;9.05;60.82
70867;HTU21D;58487;53.474;49.470;2024-03-02T12:40:21;9.07;47.89
70867;HTU21D;58487;53.474;49.470;2024-03-02T12:42:49;8.16;62.46
70867;HTU21D;58487;53.474;49.470;2024-03-02T12:45:16;9.36;70.32
70867;HTU21D;58487;53.474;49.470;2024-03-02T12:47:42;9.46;82.15
70867;HTU21D;58487;53.474;49.470;2024-03-02T12:50:09;9.95;64.47
70867;HTU21D;58487;53.474;49.470;2024-03-02T12:52:36;10.05;68.67
70867;HTU21D;58487;53.474;49.470;2024-03-02T12:55:04;9.86;84.92
70867;HTU21D;58487;53.474;49.470;2024-03-02T12:57:32;9.03;74.99
70867;HTU21D;58487;53.474;49.470;2024-03-02T13:00:05;8.87;112.12
70867;HTU21D;58487;53.474;49.470;2024-03-02T13:02:36;9.24;70.36
70867;HTU21D;58487;53.474;49.470;2024-03-02T13:05:02;9.01;117.69
70867;HTU21D;58487;53.474;49.470;2024-03-02T13:07:30;9.24;89.76
70867;HTU21D;58487;53.474;49.470;2024-03-02T13:09:56;10.07;118.99
70867;HTU21D;58487;53.474;49.470;2024-03-02T13:12:24;10.15;73.72
70867;HTU21D;58487;53.474;49.470;2024-03-02T13:14:54;10.14;80.68
70867;HTU21D;58487;53.474;49.470;2024-03-02T13:17:20;10.28;74.76
70867;HTU21D;58487;53.474;49.470;2024-03-02T13:19:57;8.81;118.99
70867;HTU21D;58487;53.474;49.470;2024-03-02T13:22:25;9.91;61.11
70867;HTU21D;58487;53.474;49.470;2024-03-02T13:24:52;9.81;57.24
70867;HTU21D;58487;53.474;49.470;2024-03-02T13:27:20;8.43;94.46
70867;HTU21D;58487;53.474;49.470;2024-03-02T13:29:47;8.82;118.99
70867;HTU21D;58487;53.474;49.470;2024-03-02T13:32:17;8.51;92.36
70867;HTU21D;58487;53.474;49.470;2024-03-02T13:34:46;8.13;67.39
70867;HTU21D;58487;53.474;49.470;2024-03-02T13:37:13;8.07;69.05
70867;HTU21D;58487;53.474;49.470;2024-03-02T13:39:39;7.50;66.31
70867;HTU21D;58487;53.474;49.470;2024-03-02T13:42:11;7.87;70.03
70867;HTU21D;58487;53.474;49.470;2024-03-02T13:44:44;8.07;60.91
70867;HTU21D;58487;53.474;49.470;2024-03-02T13:47:15;6.80;73.67
70867;HTU21D;58487;53.474;49.470;2024-03-02T13:49:41;6.72;68.38
70867;HTU21D;58487;53.474;49.470;2024-03-02T13:52:12;7.65;76.90
70867;HTU21D;58487;53.474;49.470;2024-03-02T13:54:46;5.82;67.92
70867;HTU21D;58487;53.474;49.470;2024-03-02T13:57:13;7.27;58.80
70867;HTU21D;58487;53.474;49.470;2024-03-02T13:59:41;7.07;58.36
70867;HTU21D;58487;53.474;49.470;2024-03-02T14:02:08;6.52;54.25
70867;HTU21D;58487;53.474;49.470;2024-03-02T14:04:35;6.38;53.49
70867;HTU21D;58487;53.474;49.470;2024-03-02T14:07:02;6.38;52.81
70867;HTU21D;58487;53.474;49.470;2024-03-02T14:09:29;5.81;65.72
70867;HTU21D;58487;53.474;49.470;2024-03-02T14:11:56;5.74;58.32
70867;HTU21D;58487;53.474;49.470;2024-03-02T14:14:23;5.33;61.41
70867;HTU21D;58487;53.474;49.470;2024-03-02T14:16:50;5.06;60.74
70867;HTU21D;58487;53.474;49.470;2024-03-02T14:19:16;4.76;58.16
70867;HTU21D;58487;53.474;49.470;2024-03-02T14:21:43;3.83;64.67
70867;HTU21D;58487;53.474;49.470;2024-03-02T14:24:09;3.46;72.70
70867;HTU21D;58487;53.474;49.470;2024-03-02T14:26:37;2.78;59.50
70867;HTU21D;58487;53.474;49.470;2024-03-02T14:29:05;2.88;70.07
70867;HTU21D;58487;53.474;49.470;2024-03-02T14:31:32;2.81;69.40
70867;HTU21D;58487;53.474;49.470;2024-03-02T14:33:59;2.76;74.60
70867;HTU21D;58487;53.474;49.470;2024-03-02T14:36:26;2.37;73.02
70867;HTU21D;58487;53.474;49.470;2024-03-02T14:38:56;2.21;68.88
70867;HTU21D;58487;53.474;49.470;2024-03-02T14:41:22;1.93;71.87
70867;HTU21D;58487;53.474;49.470;2024-03-02T14:43:50;1.61;65.27
70867;HTU21D;58487;53.474;49.470;2024-03-02T14:46:17;1.48;68.41
70867;HTU21D;58487;53.474;49.470;2024-03-02T14:48:45;1.45;62.66
70867;HTU21D;58487;53.474;49.470;2024-03-02T14:51:12;1.37;67.49
70867;HTU21D;58487;53.474;49.470;2024-03-02T14:53:39;1.35;67.49
70867;HTU21D;58487;53.474;49.470;2024-03-02T14:56:05;1.31;72.62
70867;HTU21D;58487;53.474;49.470;2024-03-02T14:58:32;1.09;63.85
70867;HTU21D;58487;53.474;49.470;2024-03-02T15:00:58;1.04;68.46
70867;HTU21D;58487;53.474;49.470;2024-03-02T15:03:35;1.06;67.83
70867;HTU21D;58487;53.474;49.470;2024-03-02T15:06:02;1.01;63.02
70867;HTU21D;58487;53.474;49.470;2024-03-02T15:08:30;0.93;68.28
70867;HTU21D;58487;53.474;49.470;2024-03-02T15:10:57;0.92;68.20
70867;HTU21D;58487;53.474;49.470;2024-03-02T15:13:25;0.93;61.98
70867;HTU21D;58487;53.474;49.470;2024-03-02T15:15:52;0.97;66.65
70867;HTU21D;58487;53.474;49.470;2024-03-02T15:18:18;0.99;66.86